sensor_id;sensor_type;location;lat;lon;timestamp;P1;durP1;ratioP1;P2;durP2;ratioP2
7173;SDS011;3628;48.654;8.932;2022-07-24T00:00:50;6.05;;;5.43;;
7173;SDS011;3628;48.654;8.932;2022-07-24T00:03:16;6.00;;;5.40;;
7173;SDS011;3628;48.654;8.932;2022-07-24T00:05:42;6.25;;;5.13;;
7173;SDS011;3628;48.654;8.932;2022-07-24T00:08:07;5.88;;;4.80;;
7173;SDS011;3628;48.654;8.932;2022-07-24T00:10:33;6.93;;;5.28;;
7173;SDS011;3628;48.654;8.932;2022-07-24T00:12:58;5.97;;;5.38;;
7173;SDS011;3628;48.654;8.932;2022-07-24T00:15:24;7.88;;;5.35;;
7173;SDS011;3628;48.654;8.932;2022-07-24T00:17:49;5.57;;;4.28;;
7173;SDS011;3628;48.654;8.932;2022-07-24T00:20:15;5.40;;;4.90;;
7173;SDS011;3628;48.654;8.932;2022-07-24T00:22:41;5.20;;;4.78;;
7173;SDS011;3628;48.654;8.932;2022-07-24T00:25:07;5.93;;;4.70;;
7173;SDS011;3628;48.654;8.932;2022-07-24T00:27:32;7.65;;;5.13;;
7173;SDS011;3628;48.654;8.932;2022-07-24T00:29:58;5.70;;;5.03;;
7173;SDS011;3628;48.654;8.932;2022-07-24T00:32:23;8.18;;;5.13;;
7173;SDS011;3628;48.654;8.932;2022-07-24T00:34:49;5.78;;;5.22;;
7173;SDS011;3628;48.654;8.932;2022-07-24T00:37:15;5.60;;;5.10;;
7173;SDS011;3628;48.654;8.932;2022-07-24T00:39:40;5.60;;;5.10;;
7173;SDS011;3628;48.654;8.932;2022-07-24T00:42:06;5.93;;;5.15;;
7173;SDS011;3628;48.654;8.932;2022-07-24T00:44:31;6.28;;;5.15;;
7173;SDS011;3628;48.654;8.932;2022-07-24T00:46:57;5.05;;;4.63;;
7173;SDS011;3628;48.654;8.932;2022-07-24T00:49:23;5.05;;;4.65;;
7173;SDS011;3628;48.654;8.932;2022-07-24T00:51:50;4.80;;;4.40;;
7173;SDS011;3628;48.654;8.932;2022-07-24T00:54:17;5.22;;;4.72;;
7173;SDS011;3628;48.654;8.932;2022-07-24T00:56:44;5.53;;;4.90;;
7173;SDS011;3628;48.654;8.932;2022-07-24T00:59:12;5.40;;;4.95;;
7173;SDS011;3628;48.654;8.932;2022-07-24T01:01:38;5.20;;;4.75;;
7173;SDS011;3628;48.654;8.932;2022-07-24T01:04:04;5.43;;;4.93;;
7173;SDS011;3628;48.654;8.932;2022-07-24T01:06:30;5.82;;;4.88;;
7173;SDS011;3628;48.654;8.932;2022-07-24T01:08:56;5.10;;;4.57;;
7173;SDS011;3628;48.654;8.932;2022-07-24T01:11:21;5.82;;;4.85;;
7173;SDS011;3628;48.654;8.932;2022-07-24T01:13:48;5.28;;;4.78;;
7173;SDS011;3628;48.654;8.932;2022-07-24T01:16:14;5.55;;;5.05;;
7173;SDS011;3628;48.654;8.932;2022-07-24T01:18:40;6.10;;;5.35;;
7173;SDS011;3628;48.654;8.932;2022-07-24T01:21:06;5.30;;;4.80;;
7173;SDS011;3628;48.654;8.932;2022-07-24T01:23:32;6.03;;;5.43;;
7173;SDS011;3628;48.654;8.932;2022-07-24T01:25:58;6.25;;;4.95;;
7173;SDS011;3628;48.654;8.932;2022-07-24T01:28:23;5.00;;;4.60;;
7173;SDS011;3628;48.654;8.932;2022-07-24T01:30:49;5.43;;;4.88;;
7173;SDS011;3628;48.654;8.932;2022-07-24T01:33:15;5.65;;;5.15;;
7173;SDS011;3628;48.654;8.932;2022-07-24T01:35:41;5.25;;;4.75;;
7173;SDS011;3628;48.654;8.932;2022-07-24T01:38:07;5.72;;;5.22;;
7173;SDS011;3628;48.654;8.932;2022-07-24T01:40:33;5.47;;;4.88;;
7173;SDS011;3628;48.654;8.932;2022-07-24T01:42:59;5.43;;;4.80;;
7173;SDS011;3628;48.654;8.932;2022-07-24T01:45:25;6.32;;;4.95;;
7173;SDS011;3628;48.654;8.932;2022-07-24T01:47:51;5.60;;;5.07;;
7173;SDS011;3628;48.654;8.932;2022-07-24T01:50:16;5.80;;;5.00;;
7173;SDS011;3628;48.654;8.932;2022-07-24T01:52:42;5.07;;;4.68;;
7173;SDS011;3628;48.654;8.932;2022-07-24T01:55:08;5.22;;;4.20;;
7173;SDS011;3628;48.654;8.932;2022-07-24T01:57:34;5.93;;;5.25;;
7173;SDS011;3628;48.654;8.932;2022-07-24T02:00:00;5.03;;;4.53;;
7173;SDS011;3628;48.654;8.932;2022-07-24T02:02:27;6.07;;;5.32;;
7173;SDS011;3628;48.654;8.932;2022-07-24T02:04:52;5.97;;;5.35;;
7173;SDS011;3628;48.654;8.932;2022-07-24T02:07:18;5.82;;;4.82;;
7173;SDS011;3628;48.654;8.932;2022-07-24T02:09:44;7.00;;;4.82;;
7173;SDS011;3628;48.654;8.932;2022-07-24T02:12:10;6.18;;;5.50;;
7173;SDS011;3628;48.654;8.932;2022-07-24T02:14:36;5.20;;;4.72;;
7173;SDS011;3628;48.654;8.932;2022-07-24T02:17:03;5.93;;;5.38;;
7173;SDS011;3628;48.654;8.932;2022-07-24T02:19:28;5.22;;;4.72;;
7173;SDS011;3628;48.654;8.932;2022-07-24T02:21:54;5.93;;;5.30;;
7173;SDS011;3628;48.654;8.932;2022-07-24T02:24:20;7.10;;;5.13;;
7173;SDS011;3628;48.654;8.932;2022-07-24T02:26:47;5.63;;;5.13;;
7173;SDS011;3628;48.654;8.932;2022-07-24T02:29:12;5.30;;;4.82;;
7173;SDS011;3628;48.654;8.932;2022-07-24T02:31:38;5.65;;;5.05;;
7173;SDS011;3628;48.654;8.932;2022-07-24T02:34:04;6.38;;;5.35;;
7173;SDS011;3628;48.654;8.932;2022-07-24T02:36:29;6.97;;;5.35;;
7173;SDS011;3628;48.654;8.932;2022-07-24T02:38:55;7.20;;;5.18;;
7173;SDS011;3628;48.654;8.932;2022-07-24T02:41:20;5.07;;;4.50;;
7173;SDS011;3628;48.654;8.932;2022-07-24T02:43:46;6.38;;;4.70;;
7173;SDS011;3628;48.654;8.932;2022-07-24T02:46:12;5.20;;;4.73;;
7173;SDS011;3628;48.654;8.932;2022-07-24T02:48:37;6.00;;;5.43;;
7173;SDS011;3628;48.654;8.932;2022-07-24T02:51:03;6.50;;;5.00;;
7173;SDS011;3628;48.654;8.932;2022-07-24T02:53:29;7.95;;;5.63;;
7173;SDS011;3628;48.654;8.932;2022-07-24T02:55:54;5.88;;;5.10;;
7173;SDS011;3628;48.654;8.932;2022-07-24T02:58:20;6.35;;;5.75;;
7173;SDS011;3628;48.654;8.932;2022-07-24T03:00:45;6.97;;;5.30;;
7173;SDS011;3628;48.654;8.932;2022-07-24T03:03:11;9.25;;;5.75;;
7173;SDS011;3628;48.654;8.932;2022-07-24T03:05:37;5.90;;;4.90;;
7173;SDS011;3628;48.654;8.932;2022-07-24T03:08:03;6.97;;;5.17;;
7173;SDS011;3628;48.654;8.932;2022-07-24T03:10:28;5.35;;;4.85;;
7173;SDS011;3628;48.654;8.932;2022-07-24T03:12:54;4.90;;;4.50;;
7173;SDS011;3628;48.654;8.932;2022-07-24T03:15:20;5.63;;;4.47;;
7173;SDS011;3628;48.654;8.932;2022-07-24T03:17:49;4.95;;;4.47;;
7173;SDS011;3628;48.654;8.932;2022-07-24T03:20:16;6.00;;;4.67;;
7173;SDS011;3628;48.654;8.932;2022-07-24T03:22:43;7.80;;;5.07;;
7173;SDS011;3628;48.654;8.932;2022-07-24T03:25:09;4.80;;;4.37;;
7173;SDS011;3628;48.654;8.932;2022-07-24T03:27:35;6.70;;;5.03;;
7173;SDS011;3628;48.654;8.932;2022-07-24T03:30:00;6.63;;;5.70;;
7173;SDS011;3628;48.654;8.932;2022-07-24T03:32:26;6.27;;;5.70;;
7173;SDS011;3628;48.654;8.932;2022-07-24T03:34:51;10.60;;;5.90;;
7173;SDS011;3628;48.654;8.932;2022-07-24T03:37:17;7.00;;;4.93;;
7173;SDS011;3628;48.654;8.932;2022-07-24T03:39:43;5.50;;;5.00;;
7173;SDS011;3628;48.654;8.932;2022-07-24T03:42:08;5.63;;;5.13;;
7173;SDS011;3628;48.654;8.932;2022-07-24T03:44:34;6.03;;;5.33;;
7173;SDS011;3628;48.654;8.932;2022-07-24T03:46:59;7.27;;;5.43;;
7173;SDS011;3628;48.654;8.932;2022-07-24T03:49:25;6.03;;;5.20;;
7173;SDS011;3628;48.654;8.932;2022-07-24T03:51:51;6.80;;;5.30;;
7173;SDS011;3628;48.654;8.932;2022-07-24T03:54:16;6.83;;;5.40;;
7173;SDS011;3628;48.654;8.932;2022-07-24T03:56:42;5.27;;;4.77;;
7173;SDS011;3628;48.654;8.932;2022-07-24T03:59:07;5.97;;;5.10;;
7173;SDS011;3628;48.654;8.932;2022-07-24T04:01:33;5.93;;;4.97;;
7173;SDS011;3628;48.654;8.932;2022-07-24T04:03:59;7.80;;;5.17;;
7173;SDS011;3628;48.654;8.932;2022-07-24T04:06:29;5.67;;;5.10;;
7173;SDS011;3628;48.654;8.932;2022-07-24T04:08:56;5.37;;;4.80;;
7173;SDS011;3628;48.654;8.932;2022-07-24T04:11:22;5.63;;;4.73;;
7173;SDS011;3628;48.654;8.932;2022-07-24T04:13:48;5.17;;;4.77;;
7173;SDS011;3628;48.654;8.932;2022-07-24T04:16:13;5.83;;;5.23;;
7173;SDS011;3628;48.654;8.932;2022-07-24T04:18:39;5.57;;;5.07;;
7173;SDS011;3628;48.654;8.932;2022-07-24T04:21:05;5.03;;;4.63;;
7173;SDS011;3628;48.654;8.932;2022-07-24T04:23:31;6.77;;;4.67;;
7173;SDS011;3628;48.654;8.932;2022-07-24T04:25:56;4.90;;;4.40;;
7173;SDS011;3628;48.654;8.932;2022-07-24T04:28:22;5.93;;;4.25;;
7173;SDS011;3628;48.654;8.932;2022-07-24T04:30:48;5.45;;;4.75;;
7173;SDS011;3628;48.654;8.932;2022-07-24T04:33:13;5.45;;;3.97;;
7173;SDS011;3628;48.654;8.932;2022-07-24T04:35:39;5.00;;;4.50;;
7173;SDS011;3628;48.654;8.932;2022-07-24T04:38:04;6.55;;;4.50;;
7173;SDS011;3628;48.654;8.932;2022-07-24T04:40:30;5.50;;;4.43;;
7173;SDS011;3628;48.654;8.932;2022-07-24T04:42:55;6.45;;;4.40;;
7173;SDS011;3628;48.654;8.932;2022-07-24T04:45:21;5.10;;;4.60;;
7173;SDS011;3628;48.654;8.932;2022-07-24T04:47:47;7.07;;;4.72;;
7173;SDS011;3628;48.654;8.932;2022-07-24T04:50:13;4.25;;;3.78;;
7173;SDS011;3628;48.654;8.932;2022-07-24T04:52:39;5.07;;;4.57;;
7173;SDS011;3628;48.654;8.932;2022-07-24T04:55:04;5.07;;;4.68;;
7173;SDS011;3628;48.654;8.932;2022-07-24T04:57:30;7.07;;;4.22;;
7173;SDS011;3628;48.654;8.932;2022-07-24T04:59:56;5.10;;;4.55;;
7173;SDS011;3628;48.654;8.932;2022-07-24T05:02:22;4.57;;;4.10;;
7173;SDS011;3628;48.654;8.932;2022-07-24T05:04:47;5.50;;;4.38;;
7173;SDS011;3628;48.654;8.932;2022-07-24T05:07:13;5.32;;;4.82;;
7173;SDS011;3628;48.654;8.932;2022-07-24T05:09:38;4.97;;;4.57;;
7173;SDS011;3628;48.654;8.932;2022-07-24T05:12:04;7.30;;;4.68;;
7173;SDS011;3628;48.654;8.932;2022-07-24T05:14:30;5.25;;;4.30;;
7173;SDS011;3628;48.654;8.932;2022-07-24T05:16:55;5.15;;;4.75;;
7173;SDS011;3628;48.654;8.932;2022-07-24T05:19:21;5.22;;;4.72;;
7173;SDS011;3628;48.654;8.932;2022-07-24T05:21:46;4.90;;;4.32;;
7173;SDS011;3628;48.654;8.932;2022-07-24T05:24:12;5.25;;;4.70;;
7173;SDS011;3628;48.654;8.932;2022-07-24T05:26:38;5.35;;;4.90;;
7173;SDS011;3628;48.654;8.932;2022-07-24T05:29:04;5.60;;;5.10;;
7173;SDS011;3628;48.654;8.932;2022-07-24T05:31:31;5.13;;;4.70;;
7173;SDS011;3628;48.654;8.932;2022-07-24T05:33:57;4.97;;;4.50;;
7173;SDS011;3628;48.654;8.932;2022-07-24T05:36:23;5.15;;;4.65;;
7173;SDS011;3628;48.654;8.932;2022-07-24T05:38:49;5.63;;;5.07;;
7173;SDS011;3628;48.654;8.932;2022-07-24T05:41:15;4.85;;;4.45;;
7173;SDS011;3628;48.654;8.932;2022-07-24T05:43:41;5.18;;;4.72;;
7173;SDS011;3628;48.654;8.932;2022-07-24T05:46:06;4.90;;;4.43;;
7173;SDS011;3628;48.654;8.932;2022-07-24T05:48:32;5.47;;;4.80;;
7173;SDS011;3628;48.654;8.932;2022-07-24T05:50:58;5.22;;;4.72;;
7173;SDS011;3628;48.654;8.932;2022-07-24T05:53:23;4.97;;;4.53;;
7173;SDS011;3628;48.654;8.932;2022-07-24T05:55:49;4.95;;;4.32;;
7173;SDS011;3628;48.654;8.932;2022-07-24T05:58:16;6.03;;;4.95;;
7173;SDS011;3628;48.654;8.932;2022-07-24T06:00:42;4.75;;;4.25;;
7173;SDS011;3628;48.654;8.932;2022-07-24T06:03:08;4.72;;;4.32;;
7173;SDS011;3628;48.654;8.932;2022-07-24T06:05:33;4.75;;;4.35;;
7173;SDS011;3628;48.654;8.932;2022-07-24T06:07:59;5.97;;;4.65;;
7173;SDS011;3628;48.654;8.932;2022-07-24T06:10:24;4.93;;;4.53;;
7173;SDS011;3628;48.654;8.932;2022-07-24T06:12:50;4.80;;;4.30;;
7173;SDS011;3628;48.654;8.932;2022-07-24T06:15:16;5.18;;;4.10;;
7173;SDS011;3628;48.654;8.932;2022-07-24T06:17:41;5.82;;;4.53;;
7173;SDS011;3628;48.654;8.932;2022-07-24T06:20:07;4.78;;;4.38;;
7173;SDS011;3628;48.654;8.932;2022-07-24T06:22:34;5.13;;;4.60;;
7173;SDS011;3628;48.654;8.932;2022-07-24T06:24:59;4.57;;;4.18;;
7173;SDS011;3628;48.654;8.932;2022-07-24T06:27:25;5.47;;;4.03;;
7173;SDS011;3628;48.654;8.932;2022-07-24T06:29:51;4.15;;;3.80;;
7173;SDS011;3628;48.654;8.932;2022-07-24T06:32:16;4.43;;;4.03;;
7173;SDS011;3628;48.654;8.932;2022-07-24T06:34:42;4.65;;;4.25;;
7173;SDS011;3628;48.654;8.932;2022-07-24T06:37:08;4.28;;;3.97;;
7173;SDS011;3628;48.654;8.932;2022-07-24T06:39:33;5.72;;;4.80;;
7173;SDS011;3628;48.654;8.932;2022-07-24T06:41:59;5.55;;;4.57;;
7173;SDS011;3628;48.654;8.932;2022-07-24T06:44:25;7.30;;;4.40;;
7173;SDS011;3628;48.654;8.932;2022-07-24T06:46:50;5.30;;;4.20;;
7173;SDS011;3628;48.654;8.932;2022-07-24T06:49:16;5.00;;;4.60;;
7173;SDS011;3628;48.654;8.932;2022-07-24T06:51:42;6.50;;;4.28;;
7173;SDS011;3628;48.654;8.932;2022-07-24T06:54:08;4.93;;;4.53;;
7173;SDS011;3628;48.654;8.932;2022-07-24T06:56:34;5.30;;;3.80;;
7173;SDS011;3628;48.654;8.932;2022-07-24T06:58:59;4.88;;;4.38;;
7173;SDS011;3628;48.654;8.932;2022-07-24T07:01:25;7.38;;;3.97;;
7173;SDS011;3628;48.654;8.932;2022-07-24T07:03:54;5.70;;;4.20;;
7173;SDS011;3628;48.654;8.932;2022-07-24T07:06:20;4.70;;;4.30;;
7173;SDS011;3628;48.654;8.932;2022-07-24T07:08:46;5.32;;;4.43;;
7173;SDS011;3628;48.654;8.932;2022-07-24T07:11:12;6.03;;;4.32;;
7173;SDS011;3628;48.654;8.932;2022-07-24T07:13:37;4.75;;;3.72;;
7173;SDS011;3628;48.654;8.932;2022-07-24T07:16:03;4.70;;;4.30;;
7173;SDS011;3628;48.654;8.932;2022-07-24T07:18:29;4.90;;;4.40;;
7173;SDS011;3628;48.654;8.932;2022-07-24T07:20:54;4.63;;;4.22;;
7173;SDS011;3628;48.654;8.932;2022-07-24T07:23:21;4.80;;;4.32;;
7173;SDS011;3628;48.654;8.932;2022-07-24T07:25:53;4.40;;;4.00;;
7173;SDS011;3628;48.654;8.932;2022-07-24T07:28:19;4.63;;;4.22;;
7173;SDS011;3628;48.654;8.932;2022-07-24T07:30:45;5.78;;;4.63;;
7173;SDS011;3628;48.654;8.932;2022-07-24T07:33:11;4.65;;;4.25;;
7173;SDS011;3628;48.654;8.932;2022-07-24T07:35:37;4.20;;;3.80;;
7173;SDS011;3628;48.654;8.932;2022-07-24T07:38:03;6.13;;;4.00;;
7173;SDS011;3628;48.654;8.932;2022-07-24T07:40:28;4.20;;;3.80;;
7173;SDS011;3628;48.654;8.932;2022-07-24T07:42:54;4.60;;;4.10;;
7173;SDS011;3628;48.654;8.932;2022-07-24T07:45:20;5.32;;;3.88;;
7173;SDS011;3628;48.654;8.932;2022-07-24T07:47:45;4.35;;;3.95;;
7173;SDS011;3628;48.654;8.932;2022-07-24T07:50:11;4.22;;;3.83;;
7173;SDS011;3628;48.654;8.932;2022-07-24T07:52:37;4.70;;;3.85;;
7173;SDS011;3628;48.654;8.932;2022-07-24T07:55:03;4.20;;;3.80;;
7173;SDS011;3628;48.654;8.932;2022-07-24T07:57:29;4.43;;;3.78;;
7173;SDS011;3628;48.654;8.932;2022-07-24T07:59:55;4.10;;;3.70;;
7173;SDS011;3628;48.654;8.932;2022-07-24T08:02:20;3.90;;;3.60;;
7173;SDS011;3628;48.654;8.932;2022-07-24T08:04:46;4.50;;;3.60;;
7173;SDS011;3628;48.654;8.932;2022-07-24T08:07:11;3.97;;;3.50;;
7173;SDS011;3628;48.654;8.932;2022-07-24T08:09:37;3.78;;;3.42;;
7173;SDS011;3628;48.654;8.932;2022-07-24T08:12:03;4.00;;;3.70;;
7173;SDS011;3628;48.654;8.932;2022-07-24T08:14:29;3.85;;;3.45;;
7173;SDS011;3628;48.654;8.932;2022-07-24T08:16:55;3.95;;;3.60;;
7173;SDS011;3628;48.654;8.932;2022-07-24T08:19:21;6.55;;;3.80;;
7173;SDS011;3628;48.654;8.932;2022-07-24T08:21:47;3.50;;;3.20;;
7173;SDS011;3628;48.654;8.932;2022-07-24T08:24:13;5.85;;;3.90;;
7173;SDS011;3628;48.654;8.932;2022-07-24T08:26:45;4.03;;;3.72;;
7173;SDS011;3628;48.654;8.932;2022-07-24T08:29:14;3.85;;;3.25;;
7173;SDS011;3628;48.654;8.932;2022-07-24T08:31:41;4.03;;;3.47;;
7173;SDS011;3628;48.654;8.932;2022-07-24T08:34:06;4.85;;;3.58;;
7173;SDS011;3628;48.654;8.932;2022-07-24T08:36:32;3.97;;;3.55;;
7173;SDS011;3628;48.654;8.932;2022-07-24T08:38:58;4.00;;;3.60;;
7173;SDS011;3628;48.654;8.932;2022-07-24T08:41:23;4.82;;;3.35;;
7173;SDS011;3628;48.654;8.932;2022-07-24T08:43:49;3.70;;;3.40;;
7173;SDS011;3628;48.654;8.932;2022-07-24T08:46:15;4.75;;;3.25;;
7173;SDS011;3628;48.654;8.932;2022-07-24T08:48:44;3.60;;;3.30;;
7173;SDS011;3628;48.654;8.932;2022-07-24T08:51:13;3.35;;;3.05;;
7173;SDS011;3628;48.654;8.932;2022-07-24T08:53:39;3.95;;;3.35;;
7173;SDS011;3628;48.654;8.932;2022-07-24T08:56:05;4.25;;;3.53;;
7173;SDS011;3628;48.654;8.932;2022-07-24T08:58:35;3.53;;;3.22;;
7173;SDS011;3628;48.654;8.932;2022-07-24T09:01:02;3.80;;;3.33;;
7173;SDS011;3628;48.654;8.932;2022-07-24T09:03:28;3.63;;;3.30;;
7173;SDS011;3628;48.654;8.932;2022-07-24T09:06:02;3.40;;;2.90;;
7173;SDS011;3628;48.654;8.932;2022-07-24T09:08:27;3.90;;;3.20;;
7173;SDS011;3628;48.654;8.932;2022-07-24T09:10:54;3.33;;;3.13;;
7173;SDS011;3628;48.654;8.932;2022-07-24T09:13:25;5.70;;;3.42;;
7173;SDS011;3628;48.654;8.932;2022-07-24T09:15:54;3.97;;;3.40;;
7173;SDS011;3628;48.654;8.932;2022-07-24T09:21:10;5.22;;;3.53;;
7173;SDS011;3628;48.654;8.932;2022-07-24T09:23:38;3.58;;;3.00;;
7173;SDS011;3628;48.654;8.932;2022-07-24T09:26:04;3.55;;;3.28;;
7173;SDS011;3628;48.654;8.932;2022-07-24T09:28:34;3.55;;;3.25;;
7173;SDS011;3628;48.654;8.932;2022-07-24T09:31:11;5.55;;;3.22;;
7173;SDS011;3628;48.654;8.932;2022-07-24T09:33:37;3.85;;;3.13;;
7173;SDS011;3628;48.654;8.932;2022-07-24T09:36:10;4.30;;;3.20;;
7173;SDS011;3628;48.654;8.932;2022-07-24T09:38:38;5.80;;;3.60;;
7173;SDS011;3628;48.654;8.932;2022-07-24T09:41:08;6.00;;;3.33;;
7173;SDS011;3628;48.654;8.932;2022-07-24T09:43:34;3.97;;;3.53;;
7173;SDS011;3628;48.654;8.932;2022-07-24T09:46:06;4.07;;;3.70;;
7173;SDS011;3628;48.654;8.932;2022-07-24T09:48:34;3.95;;;3.65;;
7173;SDS011;3628;48.654;8.932;2022-07-24T09:51:08;3.42;;;3.15;;
7173;SDS011;3628;48.654;8.932;2022-07-24T09:53:35;3.63;;;3.33;;
7173;SDS011;3628;48.654;8.932;2022-07-24T09:58:36;3.70;;;3.28;;
7173;SDS011;3628;48.654;8.932;2022-07-24T10:01:04;3.28;;;3.08;;
7173;SDS011;3628;48.654;8.932;2022-07-24T10:03:32;4.25;;;3.13;;
7173;SDS011;3628;48.654;8.932;2022-07-24T10:06:02;4.03;;;3.53;;
7173;SDS011;3628;48.654;8.932;2022-07-24T10:08:30;4.28;;;3.60;;
7173;SDS011;3628;48.654;8.932;2022-07-24T10:10:57;3.80;;;3.50;;
7173;SDS011;3628;48.654;8.932;2022-07-24T10:13:24;3.58;;;3.28;;
7173;SDS011;3628;48.654;8.932;2022-07-24T10:21:29;3.80;;;3.33;;
7173;SDS011;3628;48.654;8.932;2022-07-24T10:26:38;5.25;;;3.97;;
7173;SDS011;3628;48.654;8.932;2022-07-24T10:29:12;4.10;;;3.70;;
7173;SDS011;3628;48.654;8.932;2022-07-24T10:31:43;3.72;;;3.42;;
7173;SDS011;3628;48.654;8.932;2022-07-24T10:51:08;5.47;;;3.42;;
7173;SDS011;3628;48.654;8.932;2022-07-24T10:56:16;3.80;;;3.35;;
7173;SDS011;3628;48.654;8.932;2022-07-24T11:01:49;3.75;;;3.45;;
7173;SDS011;3628;48.654;8.932;2022-07-24T11:09:14;3.58;;;3.33;;
7173;SDS011;3628;48.654;8.932;2022-07-24T11:12:03;4.88;;;3.60;;
7173;SDS011;3628;48.654;8.932;2022-07-24T11:17:34;5.07;;;3.40;;
7173;SDS011;3628;48.654;8.932;2022-07-24T11:20:04;3.58;;;3.25;;
7173;SDS011;3628;48.654;8.932;2022-07-24T11:23:05;3.58;;;3.25;;
7173;SDS011;3628;48.654;8.932;2022-07-24T11:25:27;6.70;;;3.90;;
7173;SDS011;3628;48.654;8.932;2022-07-24T11:27:58;3.42;;;3.10;;
7173;SDS011;3628;48.654;8.932;2022-07-24T11:30:46;3.92;;;3.50;;
7173;SDS011;3628;48.654;8.932;2022-07-24T11:33:12;3.70;;;3.40;;
7173;SDS011;3628;48.654;8.932;2022-07-24T11:35:46;4.78;;;3.38;;
7173;SDS011;3628;48.654;8.932;2022-07-24T11:38:12;3.63;;;3.30;;
7173;SDS011;3628;48.654;8.932;2022-07-24T11:40:39;4.13;;;3.35;;
7173;SDS011;3628;48.654;8.932;2022-07-24T11:43:06;3.97;;;3.60;;
7173;SDS011;3628;48.654;8.932;2022-07-24T11:45:34;3.65;;;3.35;;
7173;SDS011;3628;48.654;8.932;2022-07-24T11:48:00;5.78;;;3.38;;
7173;SDS011;3628;48.654;8.932;2022-07-24T11:53:47;3.85;;;3.50;;
7173;SDS011;3628;48.654;8.932;2022-07-24T11:56:13;4.03;;;3.33;;
7173;SDS011;3628;48.654;8.932;2022-07-24T11:58:41;3.60;;;3.30;;
7173;SDS011;3628;48.654;8.932;2022-07-24T12:01:23;3.50;;;3.20;;
7173;SDS011;3628;48.654;8.932;2022-07-24T12:03:52;3.72;;;3.22;;
7173;SDS011;3628;48.654;8.932;2022-07-24T12:06:19;3.47;;;3.00;;
7173;SDS011;3628;48.654;8.932;2022-07-24T12:08:45;4.05;;;3.50;;
7173;SDS011;3628;48.654;8.932;2022-07-24T12:11:10;3.70;;;3.40;;
7173;SDS011;3628;48.654;8.932;2022-07-24T12:13:40;2.90;;;2.70;;
7173;SDS011;3628;48.654;8.932;2022-07-24T12:16:06;3.83;;;3.53;;
7173;SDS011;3628;48.654;8.932;2022-07-24T12:18:32;3.90;;;3.42;;
7173;SDS011;3628;48.654;8.932;2022-07-24T12:20:59;3.75;;;3.45;;
7173;SDS011;3628;48.654;8.932;2022-07-24T12:23:26;3.90;;;3.60;;
7173;SDS011;3628;48.654;8.932;2022-07-24T12:25:54;3.65;;;3.25;;
7173;SDS011;3628;48.654;8.932;2022-07-24T12:28:20;4.55;;;3.67;;
7173;SDS011;3628;48.654;8.932;2022-07-24T12:30:49;4.05;;;3.70;;
7173;SDS011;3628;48.654;8.932;2022-07-24T12:33:24;7.57;;;3.40;;
7173;SDS011;3628;48.654;8.932;2022-07-24T12:38:34;4.05;;;3.75;;
7173;SDS011;3628;48.654;8.932;2022-07-24T12:41:11;3.60;;;3.40;;
7173;SDS011;3628;48.654;8.932;2022-07-24T12:46:15;3.50;;;3.20;;
7173;SDS011;3628;48.654;8.932;2022-07-24T12:48:58;4.20;;;3.80;;
7173;SDS011;3628;48.654;8.932;2022-07-24T12:55:03;3.33;;;3.10;;
7173;SDS011;3628;48.654;8.932;2022-07-24T12:57:43;3.67;;;3.10;;
7173;SDS011;3628;48.654;8.932;2022-07-24T13:00:09;3.42;;;3.13;;
7173;SDS011;3628;48.654;8.932;2022-07-24T13:02:35;3.70;;;3.50;;
7173;SDS011;3628;48.654;8.932;2022-07-24T13:05:01;4.72;;;3.60;;
7173;SDS011;3628;48.654;8.932;2022-07-24T13:07:27;3.97;;;3.47;;
7173;SDS011;3628;48.654;8.932;2022-07-24T13:09:53;3.90;;;3.60;;
7173;SDS011;3628;48.654;8.932;2022-07-24T13:12:19;3.50;;;3.20;;
7173;SDS011;3628;48.654;8.932;2022-07-24T13:14:45;3.70;;;3.25;;
7173;SDS011;3628;48.654;8.932;2022-07-24T13:17:11;3.63;;;3.33;;
7173;SDS011;3628;48.654;8.932;2022-07-24T13:19:42;3.85;;;3.28;;
7173;SDS011;3628;48.654;8.932;2022-07-24T13:22:09;4.05;;;3.65;;
7173;SDS011;3628;48.654;8.932;2022-07-24T13:24:35;4.40;;;3.47;;
7173;SDS011;3628;48.654;8.932;2022-07-24T13:27:05;3.92;;;3.58;;
7173;SDS011;3628;48.654;8.932;2022-07-24T13:29:32;3.97;;;3.67;;
7173;SDS011;3628;48.654;8.932;2022-07-24T13:31:59;4.70;;;3.10;;
7173;SDS011;3628;48.654;8.932;2022-07-24T13:34:25;4.15;;;3.17;;
7173;SDS011;3628;48.654;8.932;2022-07-24T13:36:52;3.33;;;3.03;;
7173;SDS011;3628;48.654;8.932;2022-07-24T13:39:18;3.30;;;3.10;;
7173;SDS011;3628;48.654;8.932;2022-07-24T13:41:43;3.17;;;2.97;;
7173;SDS011;3628;48.654;8.932;2022-07-24T13:44:09;3.33;;;3.03;;
7173;SDS011;3628;48.654;8.932;2022-07-24T13:46:35;3.90;;;3.58;;
7173;SDS011;3628;48.654;8.932;2022-07-24T13:49:01;3.78;;;3.47;;
7173;SDS011;3628;48.654;8.932;2022-07-24T13:51:28;3.72;;;3.17;;
7173;SDS011;3628;48.654;8.932;2022-07-24T13:53:54;3.08;;;2.88;;
7173;SDS011;3628;48.654;8.932;2022-07-24T13:56:20;3.58;;;3.28;;
7173;SDS011;3628;48.654;8.932;2022-07-24T13:58:49;3.47;;;3.17;;
7173;SDS011;3628;48.654;8.932;2022-07-24T14:01:14;4.38;;;3.20;;
7173;SDS011;3628;48.654;8.932;2022-07-24T14:03:42;5.28;;;3.15;;
7173;SDS011;3628;48.654;8.932;2022-07-24T14:06:08;4.05;;;3.10;;
7173;SDS011;3628;48.654;8.932;2022-07-24T14:08:35;4.63;;;3.42;;
7173;SDS011;3628;48.654;8.932;2022-07-24T14:11:01;4.85;;;3.45;;
7173;SDS011;3628;48.654;8.932;2022-07-24T14:13:27;3.92;;;3.03;;
7173;SDS011;3628;48.654;8.932;2022-07-24T14:15:53;3.30;;;3.00;;
7173;SDS011;3628;48.654;8.932;2022-07-24T14:18:19;3.20;;;3.00;;
7173;SDS011;3628;48.654;8.932;2022-07-24T14:20:45;3.78;;;3.47;;
7173;SDS011;3628;48.654;8.932;2022-07-24T14:23:11;3.40;;;3.10;;
7173;SDS011;3628;48.654;8.932;2022-07-24T14:25:36;3.65;;;3.33;;
7173;SDS011;3628;48.654;8.932;2022-07-24T14:28:02;4.80;;;3.47;;
7173;SDS011;3628;48.654;8.932;2022-07-24T14:30:29;4.10;;;3.70;;
7173;SDS011;3628;48.654;8.932;2022-07-24T14:32:54;4.00;;;2.90;;
7173;SDS011;3628;48.654;8.932;2022-07-24T14:35:20;4.97;;;3.40;;
7173;SDS011;3628;48.654;8.932;2022-07-24T14:37:46;3.70;;;3.10;;
7173;SDS011;3628;48.654;8.932;2022-07-24T14:40:11;4.60;;;3.40;;
7173;SDS011;3628;48.654;8.932;2022-07-24T14:42:37;3.53;;;3.22;;
7173;SDS011;3628;48.654;8.932;2022-07-24T14:45:03;3.22;;;2.92;;
7173;SDS011;3628;48.654;8.932;2022-07-24T14:47:29;3.42;;;3.13;;
7173;SDS011;3628;48.654;8.932;2022-07-24T14:49:55;3.50;;;3.20;;
7173;SDS011;3628;48.654;8.932;2022-07-24T14:52:21;4.03;;;3.00;;
7173;SDS011;3628;48.654;8.932;2022-07-24T14:54:48;3.75;;;3.35;;
7173;SDS011;3628;48.654;8.932;2022-07-24T14:57:13;3.45;;;3.15;;
7173;SDS011;3628;48.654;8.932;2022-07-24T14:59:40;3.00;;;2.78;;
7173;SDS011;3628;48.654;8.932;2022-07-24T15:02:06;5.70;;;3.80;;
7173;SDS011;3628;48.654;8.932;2022-07-24T15:04:33;3.70;;;3.00;;
7173;SDS011;3628;48.654;8.932;2022-07-24T15:06:59;3.72;;;3.05;;
7173;SDS011;3628;48.654;8.932;2022-07-24T15:09:24;3.30;;;3.00;;
7173;SDS011;3628;48.654;8.932;2022-07-24T15:11:50;5.55;;;3.20;;
7173;SDS011;3628;48.654;8.932;2022-07-24T15:14:16;3.47;;;2.83;;
7173;SDS011;3628;48.654;8.932;2022-07-24T15:16:41;3.15;;;2.95;;
7173;SDS011;3628;48.654;8.932;2022-07-24T15:19:07;3.33;;;3.03;;
7173;SDS011;3628;48.654;8.932;2022-07-24T15:21:33;4.65;;;3.47;;
7173;SDS011;3628;48.654;8.932;2022-07-24T15:23:59;3.75;;;2.95;;
7173;SDS011;3628;48.654;8.932;2022-07-24T15:26:25;3.25;;;2.95;;
7173;SDS011;3628;48.654;8.932;2022-07-24T15:28:50;4.22;;;3.28;;
7173;SDS011;3628;48.654;8.932;2022-07-24T15:31:16;3.60;;;3.05;;
7173;SDS011;3628;48.654;8.932;2022-07-24T15:33:45;3.10;;;2.90;;
7173;SDS011;3628;48.654;8.932;2022-07-24T15:36:11;3.30;;;3.10;;
7173;SDS011;3628;48.654;8.932;2022-07-24T15:38:36;3.38;;;3.03;;
7173;SDS011;3628;48.654;8.932;2022-07-24T15:41:02;5.30;;;3.15;;
7173;SDS011;3628;48.654;8.932;2022-07-24T15:43:28;5.05;;;3.35;;
7173;SDS011;3628;48.654;8.932;2022-07-24T15:45:54;4.00;;;3.25;;
7173;SDS011;3628;48.654;8.932;2022-07-24T15:48:20;3.20;;;3.00;;
7173;SDS011;3628;48.654;8.932;2022-07-24T15:50:45;3.50;;;3.20;;
7173;SDS011;3628;48.654;8.932;2022-07-24T15:53:11;7.45;;;3.20;;
7173;SDS011;3628;48.654;8.932;2022-07-24T15:55:37;3.30;;;3.00;;
7173;SDS011;3628;48.654;8.932;2022-07-24T15:58:02;3.92;;;2.97;;
7173;SDS011;3628;48.654;8.932;2022-07-24T16:00:28;3.35;;;3.15;;
7173;SDS011;3628;48.654;8.932;2022-07-24T16:02:54;5.15;;;3.45;;
7173;SDS011;3628;48.654;8.932;2022-07-24T16:05:20;5.35;;;3.15;;
7173;SDS011;3628;48.654;8.932;2022-07-24T16:07:48;3.80;;;3.42;;